sensor_id;sensor_type;location;lat;lon;timestamp;temperature;humidity
13332;DHT22;6735;51.456;12.626;2024-01-30T00:01:42;1.70;80.80
13332;DHT22;6735;51.456;12.626;2024-01-30T00:04:08;1.70;80.30
13332;DHT22;6735;51.456;12.626;2024-01-30T00:06:33;1.70;80.50
13332;DHT22;6735;51.456;12.626;2024-01-30T00:08:59;1.70;80.20
13332;DHT22;6735;51.456;12.626;2024-01-30T00:11:24;1.60;80.20
13332;DHT22;6735;51.456;12.626;2024-01-30T00:13:54;1.60;80.00
13332;DHT22;6735;51.456;12.626;2024-01-30T00:16:22;1.60;79.80
13332;DHT22;6735;51.456;12.626;2024-01-30T00:18:50;1.60;79.80
13332;DHT22;6735;51.456;12.626;2024-01-30T00:21:15;1.60;80.10
13332;DHT22;6735;51.456;12.626;2024-01-30T00:23:41;1.60;80.70
13332;DHT22;6735;51.456;12.626;2024-01-30T00:26:06;1.60;81.00
13332;DHT22;6735;51.456;12.626;2024-01-30T00:28:32;1.60;81.20
13332;DHT22;6735;51.456;12.626;2024-01-30T00:30:57;1.60;81.40
13332;DHT22;6735;51.456;12.626;2024-01-30T00:33:23;1.70;81.50
13332;DHT22;6735;51.456;12.626;2024-01-30T00:35:48;1.70;81.30
13332;DHT22;6735;51.456;12.626;2024-01-30T00:38:14;1.70;81.20
13332;DHT22;6735;51.456;12.626;2024-01-30T00:40:39;1.80;81.00
13332;DHT22;6735;51.456;12.626;2024-01-30T00:43:04;1.80;81.00
13332;DHT22;6735;51.456;12.626;2024-01-30T00:45:30;1.90;80.80
13332;DHT22;6735;51.456;12.626;2024-01-30T00:47:56;1.90;80.70
13332;DHT22;6735;51.456;12.626;2024-01-30T00:50:22;1.90;80.60
13332;DHT22;6735;51.456;12.626;2024-01-30T00:52:47;1.90;80.30
13332;DHT22;6735;51.456;12.626;2024-01-30T00:55:13;2.00;80.20
13332;DHT22;6735;51.456;12.626;2024-01-30T00:57:39;2.00;80.10
13332;DHT22;6735;51.456;12.626;2024-01-30T01:00:05;2.00;80.30
13332;DHT22;6735;51.456;12.626;2024-01-30T01:02:34;2.00;80.30
13332;DHT22;6735;51.456;12.626;2024-01-30T01:04:59;2.00;80.20
13332;DHT22;6735;51.456;12.626;2024-01-30T01:07:25;2.10;80.10
13332;DHT22;6735;51.456;12.626;2024-01-30T01:09:50;2.10;80.00
13332;DHT22;6735;51.456;12.626;2024-01-30T01:12:16;2.10;79.80
13332;DHT22;6735;51.456;12.626;2024-01-30T01:14:41;2.20;79.40
13332;DHT22;6735;51.456;12.626;2024-01-30T01:17:07;2.20;79.30
13332;DHT22;6735;51.456;12.626;2024-01-30T01:19:32;2.30;79.20
13332;DHT22;6735;51.456;12.626;2024-01-30T01:21:58;2.30;79.00
13332;DHT22;6735;51.456;12.626;2024-01-30T01:24:23;2.40;79.00
13332;DHT22;6735;51.456;12.626;2024-01-30T01:26:49;2.30;78.80
13332;DHT22;6735;51.456;12.626;2024-01-30T01:29:15;2.40;78.60
13332;DHT22;6735;51.456;12.626;2024-01-30T01:31:41;2.50;78.50
13332;DHT22;6735;51.456;12.626;2024-01-30T01:34:10;2.50;78.50
13332;DHT22;6735;51.456;12.626;2024-01-30T01:36:36;2.50;78.30
13332;DHT22;6735;51.456;12.626;2024-01-30T01:39:01;2.50;78.10
13332;DHT22;6735;51.456;12.626;2024-01-30T01:41:32;2.50;78.20
13332;DHT22;6735;51.456;12.626;2024-01-30T01:43:58;2.50;78.30
13332;DHT22;6735;51.456;12.626;2024-01-30T01:46:26;2.50;78.20
13332;DHT22;6735;51.456;12.626;2024-01-30T01:48:52;2.50;78.10
13332;DHT22;6735;51.456;12.626;2024-01-30T01:51:18;2.60;78.10
13332;DHT22;6735;51.456;12.626;2024-01-30T01:53:44;2.60;78.10
13332;DHT22;6735;51.456;12.626;2024-01-30T01:56:10;2.60;78.00
13332;DHT22;6735;51.456;12.626;2024-01-30T01:58:37;2.60;78.00
13332;DHT22;6735;51.456;12.626;2024-01-30T02:01:03;2.60;78.00
13332;DHT22;6735;51.456;12.626;2024-01-30T02:03:30;2.60;78.00
13332;DHT22;6735;51.456;12.626;2024-01-30T02:05:56;2.60;77.80
13332;DHT22;6735;51.456;12.626;2024-01-30T02:08:23;2.60;77.80
13332;DHT22;6735;51.456;12.626;2024-01-30T02:10:48;2.60;77.70
13332;DHT22;6735;51.456;12.626;2024-01-30T02:13:14;2.70;77.70
13332;DHT22;6735;51.456;12.626;2024-01-30T02:15:39;2.70;77.50
13332;DHT22;6735;51.456;12.626;2024-01-30T02:18:05;2.70;77.50
13332;DHT22;6735;51.456;12.626;2024-01-30T02:20:31;2.70;77.50
13332;DHT22;6735;51.456;12.626;2024-01-30T02:22:59;2.60;77.60
13332;DHT22;6735;51.456;12.626;2024-01-30T02:25:40;2.60;77.80
13332;DHT22;6735;51.456;12.626;2024-01-30T02:28:12;2.60;77.80
13332;DHT22;6735;51.456;12.626;2024-01-30T02:30:39;2.60;77.90
13332;DHT22;6735;51.456;12.626;2024-01-30T02:33:04;2.60;78.00
13332;DHT22;6735;51.456;12.626;2024-01-30T02:35:30;2.60;78.00
13332;DHT22;6735;51.456;12.626;2024-01-30T02:37:55;2.60;78.10
13332;DHT22;6735;51.456;12.626;2024-01-30T02:40:21;2.60;78.20
13332;DHT22;6735;51.456;12.626;2024-01-30T02:42:47;2.70;78.00
13332;DHT22;6735;51.456;12.626;2024-01-30T02:45:13;2.70;77.90
13332;DHT22;6735;51.456;12.626;2024-01-30T02:47:39;2.70;77.90
13332;DHT22;6735;51.456;12.626;2024-01-30T02:50:05;2.70;77.80
13332;DHT22;6735;51.456;12.626;2024-01-30T02:52:30;2.70;77.80
13332;DHT22;6735;51.456;12.626;2024-01-30T02:54:56;2.60;77.90
13332;DHT22;6735;51.456;12.626;2024-01-30T02:57:21;2.70;78.00
13332;DHT22;6735;51.456;12.626;2024-01-30T02:59:47;2.60;78.10
13332;DHT22;6735;51.456;12.626;2024-01-30T03:02:12;2.60;78.10
13332;DHT22;6735;51.456;12.626;2024-01-30T03:04:40;2.60;78.10
13332;DHT22;6735;51.456;12.626;2024-01-30T03:07:06;2.60;78.00
13332;DHT22;6735;51.456;12.626;2024-01-30T03:09:32;2.60;78.30
13332;DHT22;6735;51.456;12.626;2024-01-30T03:11:57;2.50;78.30
13332;DHT22;6735;51.456;12.626;2024-01-30T03:14:22;2.50;78.40
13332;DHT22;6735;51.456;12.626;2024-01-30T03:16:48;2.40;78.50
13332;DHT22;6735;51.456;12.626;2024-01-30T03:19:13;2.40;78.40
13332;DHT22;6735;51.456;12.626;2024-01-30T03:21:39;2.40;78.50
13332;DHT22;6735;51.456;12.626;2024-01-30T03:24:04;2.30;78.50
13332;DHT22;6735;51.456;12.626;2024-01-30T03:26:30;2.30;78.50
13332;DHT22;6735;51.456;12.626;2024-01-30T03:28:56;2.40;78.60
13332;DHT22;6735;51.456;12.626;2024-01-30T03:31:21;2.30;78.60
13332;DHT22;6735;51.456;12.626;2024-01-30T03:33:47;2.30;78.70
13332;DHT22;6735;51.456;12.626;2024-01-30T03:36:12;2.30;78.80
13332;DHT22;6735;51.456;12.626;2024-01-30T03:38:38;2.20;78.90
13332;DHT22;6735;51.456;12.626;2024-01-30T03:41:03;2.20;78.90
13332;DHT22;6735;51.456;12.626;2024-01-30T03:43:32;2.10;78.80
13332;DHT22;6735;51.456;12.626;2024-01-30T03:45:58;2.10;79.00
13332;DHT22;6735;51.456;12.626;2024-01-30T03:48:24;2.10;79.10
13332;DHT22;6735;51.456;12.626;2024-01-30T03:50:51;2.10;79.10
13332;DHT22;6735;51.456;12.626;2024-01-30T03:53:17;2.10;79.00
13332;DHT22;6735;51.456;12.626;2024-01-30T03:55:43;2.10;79.20
13332;DHT22;6735;51.456;12.626;2024-01-30T03:58:08;2.10;79.20
13332;DHT22;6735;51.456;12.626;2024-01-30T04:00:33;2.10;79.10
13332;DHT22;6735;51.456;12.626;2024-01-30T04:02:59;2.10;79.10
13332;DHT22;6735;51.456;12.626;2024-01-30T04:05:24;2.10;79.20
13332;DHT22;6735;51.456;12.626;2024-01-30T04:07:50;2.10;79.10
13332;DHT22;6735;51.456;12.626;2024-01-30T04:10:16;2.10;79.00
13332;DHT22;6735;51.456;12.626;2024-01-30T04:12:42;2.10;79.00
13332;DHT22;6735;51.456;12.626;2024-01-30T04:15:08;2.10;78.90
13332;DHT22;6735;51.456;12.626;2024-01-30T04:17:33;2.00;78.80
13332;DHT22;6735;51.456;12.626;2024-01-30T04:19:59;2.00;79.10
13332;DHT22;6735;51.456;12.626;2024-01-30T04:22:24;2.00;79.50
13332;DHT22;6735;51.456;12.626;2024-01-30T04:24:50;2.00;79.10
13332;DHT22;6735;51.456;12.626;2024-01-30T04:27:15;2.00;79.10
13332;DHT22;6735;51.456;12.626;2024-01-30T04:29:41;2.00;79.00
13332;DHT22;6735;51.456;12.626;2024-01-30T04:32:06;2.00;79.30
13332;DHT22;6735;51.456;12.626;2024-01-30T04:34:32;2.00;79.20
13332;DHT22;6735;51.456;12.626;2024-01-30T04:36:57;2.00;79.00
13332;DHT22;6735;51.456;12.626;2024-01-30T04:39:23;1.90;79.00
13332;DHT22;6735;51.456;12.626;2024-01-30T04:41:48;1.90;79.00
13332;DHT22;6735;51.456;12.626;2024-01-30T04:44:14;1.80;79.20
13332;DHT22;6735;51.456;12.626;2024-01-30T04:46:39;1.80;79.30
13332;DHT22;6735;51.456;12.626;2024-01-30T04:49:05;1.80;79.30
13332;DHT22;6735;51.456;12.626;2024-01-30T04:51:33;1.80;79.10
13332;DHT22;6735;51.456;12.626;2024-01-30T04:53:58;1.80;79.00
13332;DHT22;6735;51.456;12.626;2024-01-30T04:56:24;1.80;79.10
13332;DHT22;6735;51.456;12.626;2024-01-30T04:58:49;1.70;79.10
13332;DHT22;6735;51.456;12.626;2024-01-30T05:01:18;1.70;79.00
13332;DHT22;6735;51.456;12.626;2024-01-30T05:03:43;1.70;79.00
13332;DHT22;6735;51.456;12.626;2024-01-30T05:06:09;1.60;79.30
13332;DHT22;6735;51.456;12.626;2024-01-30T05:08:34;1.60;79.30
13332;DHT22;6735;51.456;12.626;2024-01-30T05:11:02;1.60;79.40
13332;DHT22;6735;51.456;12.626;2024-01-30T05:13:32;1.60;79.50
13332;DHT22;6735;51.456;12.626;2024-01-30T05:15:57;1.50;79.90
13332;DHT22;6735;51.456;12.626;2024-01-30T05:18:23;1.50;80.00
13332;DHT22;6735;51.456;12.626;2024-01-30T05:20:50;1.50;79.70
13332;DHT22;6735;51.456;12.626;2024-01-30T05:23:16;1.50;80.00
13332;DHT22;6735;51.456;12.626;2024-01-30T05:25:41;1.50;79.80
13332;DHT22;6735;51.456;12.626;2024-01-30T05:28:07;1.50;79.70
13332;DHT22;6735;51.456;12.626;2024-01-30T05:30:32;1.50;79.60
13332;DHT22;6735;51.456;12.626;2024-01-30T05:32:58;1.50;79.30
13332;DHT22;6735;51.456;12.626;2024-01-30T05:35:23;1.60;79.30
13332;DHT22;6735;51.456;12.626;2024-01-30T05:37:49;1.50;79.50
13332;DHT22;6735;51.456;12.626;2024-01-30T05:40:17;1.60;79.30
13332;DHT22;6735;51.456;12.626;2024-01-30T05:42:42;1.60;79.40
13332;DHT22;6735;51.456;12.626;2024-01-30T05:45:08;1.60;79.00
13332;DHT22;6735;51.456;12.626;2024-01-30T05:47:34;1.60;79.30
13332;DHT22;6735;51.456;12.626;2024-01-30T05:50:00;1.60;79.20
13332;DHT22;6735;51.456;12.626;2024-01-30T05:52:25;1.60;79.10
13332;DHT22;6735;51.456;12.626;2024-01-30T05:54:51;1.60;79.10
13332;DHT22;6735;51.456;12.626;2024-01-30T05:57:16;1.50;79.20
13332;DHT22;6735;51.456;12.626;2024-01-30T05:59:42;1.60;79.40
13332;DHT22;6735;51.456;12.626;2024-01-30T06:02:10;1.50;79.60
13332;DHT22;6735;51.456;12.626;2024-01-30T06:04:36;1.60;79.40
13332;DHT22;6735;51.456;12.626;2024-01-30T06:07:01;1.60;79.40
13332;DHT22;6735;51.456;12.626;2024-01-30T06:09:27;1.60;79.30
13332;DHT22;6735;51.456;12.626;2024-01-30T06:11:53;1.60;79.20
13332;DHT22;6735;51.456;12.626;2024-01-30T06:14:19;1.70;78.80
13332;DHT22;6735;51.456;12.626;2024-01-30T06:16:44;1.80;78.40
13332;DHT22;6735;51.456;12.626;2024-01-30T06:19:10;1.80;78.10
13332;DHT22;6735;51.456;12.626;2024-01-30T06:21:35;1.80;78.10
13332;DHT22;6735;51.456;12.626;2024-01-30T06:24:04;1.80;78.00
13332;DHT22;6735;51.456;12.626;2024-01-30T06:26:30;1.90;77.90
13332;DHT22;6735;51.456;12.626;2024-01-30T06:28:55;2.00;77.20
13332;DHT22;6735;51.456;12.626;2024-01-30T06:31:21;2.10;76.70
13332;DHT22;6735;51.456;12.626;2024-01-30T06:33:47;2.20;76.70
13332;DHT22;6735;51.456;12.626;2024-01-30T06:36:12;2.20;76.70
13332;DHT22;6735;51.456;12.626;2024-01-30T06:38:38;2.20;76.60
13332;DHT22;6735;51.456;12.626;2024-01-30T06:41:03;2.20;76.50
13332;DHT22;6735;51.456;12.626;2024-01-30T06:43:29;2.30;76.20
13332;DHT22;6735;51.456;12.626;2024-01-30T06:45:54;2.30;76.30
13332;DHT22;6735;51.456;12.626;2024-01-30T06:48:20;2.30;76.30
13332;DHT22;6735;51.456;12.626;2024-01-30T06:50:45;2.30;76.10
13332;DHT22;6735;51.456;12.626;2024-01-30T06:53:11;2.40;75.40
13332;DHT22;6735;51.456;12.626;2024-01-30T06:55:36;2.50;74.70
13332;DHT22;6735;51.456;12.626;2024-01-30T06:58:02;2.70;74.00
13332;DHT22;6735;51.456;12.626;2024-01-30T07:00:28;2.80;74.10
13332;DHT22;6735;51.456;12.626;2024-01-30T07:02:53;2.90;73.20
13332;DHT22;6735;51.456;12.626;2024-01-30T07:05:18;3.00;73.10
13332;DHT22;6735;51.456;12.626;2024-01-30T07:07:44;3.00;73.20
13332;DHT22;6735;51.456;12.626;2024-01-30T07:10:10;3.00;73.20
13332;DHT22;6735;51.456;12.626;2024-01-30T07:12:35;3.10;72.70
13332;DHT22;6735;51.456;12.626;2024-01-30T07:15:00;3.10;71.80
13332;DHT22;6735;51.456;12.626;2024-01-30T07:17:28;3.30;71.40
13332;DHT22;6735;51.456;12.626;2024-01-30T07:19:53;3.40;70.60
13332;DHT22;6735;51.456;12.626;2024-01-30T07:22:18;3.50;70.00
13332;DHT22;6735;51.456;12.626;2024-01-30T07:24:44;3.70;69.60
13332;DHT22;6735;51.456;12.626;2024-01-30T07:27:10;3.80;69.70
13332;DHT22;6735;51.456;12.626;2024-01-30T07:29:36;3.90;68.90
13332;DHT22;6735;51.456;12.626;2024-01-30T07:32:01;4.00;68.60
13332;DHT22;6735;51.456;12.626;2024-01-30T07:34:27;4.10;68.40
13332;DHT22;6735;51.456;12.626;2024-01-30T07:36:52;4.10;67.70
13332;DHT22;6735;51.456;12.626;2024-01-30T07:39:18;4.20;66.80
13332;DHT22;6735;51.456;12.626;2024-01-30T07:41:43;4.40;66.80
13332;DHT22;6735;51.456;12.626;2024-01-30T07:44:09;4.50;66.50
13332;DHT22;6735;51.456;12.626;2024-01-30T07:46:34;4.60;65.30
13332;DHT22;6735;51.456;12.626;2024-01-30T07:49:00;4.80;65.70
13332;DHT22;6735;51.456;12.626;2024-01-30T07:51:25;4.90;64.50
13332;DHT22;6735;51.456;12.626;2024-01-30T07:53:51;5.10;65.00
13332;DHT22;6735;51.456;12.626;2024-01-30T07:56:16;5.20;63.10
13332;DHT22;6735;51.456;12.626;2024-01-30T07:58:42;5.30;62.90
13332;DHT22;6735;51.456;12.626;2024-01-30T08:01:07;5.40;63.40
13332;DHT22;6735;51.456;12.626;2024-01-30T08:03:33;5.40;64.20
13332;DHT22;6735;51.456;12.626;2024-01-30T08:05:59;5.40;63.30
13332;DHT22;6735;51.456;12.626;2024-01-30T08:08:25;5.50;62.80
13332;DHT22;6735;51.456;12.626;2024-01-30T08:10:51;5.60;63.50
13332;DHT22;6735;51.456;12.626;2024-01-30T08:13:17;5.60;63.00
13332;DHT22;6735;51.456;12.626;2024-01-30T08:15:42;5.60;63.20
13332;DHT22;6735;51.456;12.626;2024-01-30T08:18:08;5.60;63.20
13332;DHT22;6735;51.456;12.626;2024-01-30T08:20:33;5.60;62.20
13332;DHT22;6735;51.456;12.626;2024-01-30T08:22:59;5.70;62.90
13332;DHT22;6735;51.456;12.626;2024-01-30T08:25:26;5.70;63.60
13332;DHT22;6735;51.456;12.626;2024-01-30T08:27:51;5.80;63.80
13332;DHT22;6735;51.456;12.626;2024-01-30T08:30:17;5.80;62.50
13332;DHT22;6735;51.456;12.626;2024-01-30T08:32:42;5.80;63.60
13332;DHT22;6735;51.456;12.626;2024-01-30T08:35:08;5.90;62.90
13332;DHT22;6735;51.456;12.626;2024-01-30T08:37:34;6.00;63.60
13332;DHT22;6735;51.456;12.626;2024-01-30T08:39:59;6.10;62.90
13332;DHT22;6735;51.456;12.626;2024-01-30T08:42:25;6.10;62.40
13332;DHT22;6735;51.456;12.626;2024-01-30T08:44:51;6.10;62.20
13332;DHT22;6735;51.456;12.626;2024-01-30T08:47:18;6.20;62.60
13332;DHT22;6735;51.456;12.626;2024-01-30T08:49:44;6.30;63.30
13332;DHT22;6735;51.456;12.626;2024-01-30T08:52:12;6.40;62.80
13332;DHT22;6735;51.456;12.626;2024-01-30T08:54:38;6.40;62.70
13332;DHT22;6735;51.456;12.626;2024-01-30T08:57:04;6.50;62.30
13332;DHT22;6735;51.456;12.626;2024-01-30T08:59:30;6.60;61.70
13332;DHT22;6735;51.456;12.626;2024-01-30T09:01:55;6.70;61.40
13332;DHT22;6735;51.456;12.626;2024-01-30T09:04:23;6.80;61.20
13332;DHT22;6735;51.456;12.626;2024-01-30T09:06:48;6.80;60.20
13332;DHT22;6735;51.456;12.626;2024-01-30T09:09:14;6.80;60.80
13332;DHT22;6735;51.456;12.626;2024-01-30T09:11:40;7.00;61.20
13332;DHT22;6735;51.456;12.626;2024-01-30T09:14:05;7.10;60.70
13332;DHT22;6735;51.456;12.626;2024-01-30T09:16:31;7.10;60.30
13332;DHT22;6735;51.456;12.626;2024-01-30T09:18:56;7.30;64.70
13332;DHT22;6735;51.456;12.626;2024-01-30T09:21:22;7.50;62.40
13332;DHT22;6735;51.456;12.626;2024-01-30T09:23:47;7.50;61.00
13332;DHT22;6735;51.456;12.626;2024-01-30T09:26:12;7.60;60.20
13332;DHT22;6735;51.456;12.626;2024-01-30T09:28:38;7.60;59.60
13332;DHT22;6735;51.456;12.626;2024-01-30T09:31:04;7.70;59.40
13332;DHT22;6735;51.456;12.626;2024-01-30T09:33:29;7.70;59.50
13332;DHT22;6735;51.456;12.626;2024-01-30T09:35:55;7.70;59.10
13332;DHT22;6735;51.456;12.626;2024-01-30T09:38:20;7.80;59.80
13332;DHT22;6735;51.456;12.626;2024-01-30T09:40:51;7.90;59.90
13332;DHT22;6735;51.456;12.626;2024-01-30T09:43:22;8.00;59.50
13332;DHT22;6735;51.456;12.626;2024-01-30T09:45:48;8.00;59.50
13332;DHT22;6735;51.456;12.626;2024-01-30T09:48:15;8.10;60.40
13332;DHT22;6735;51.456;12.626;2024-01-30T09:50:41;8.10;60.10
13332;DHT22;6735;51.456;12.626;2024-01-30T09:53:08;8.20;60.30
13332;DHT22;6735;51.456;12.626;2024-01-30T09:55:35;8.20;59.30
13332;DHT22;6735;51.456;12.626;2024-01-30T09:58:01;8.20;59.70
13332;DHT22;6735;51.456;12.626;2024-01-30T10:00:26;8.20;59.80
13332;DHT22;6735;51.456;12.626;2024-01-30T10:02:53;8.20;59.80
13332;DHT22;6735;51.456;12.626;2024-01-30T10:05:19;8.30;60.00
13332;DHT22;6735;51.456;12.626;2024-01-30T10:07:55;8.40;59.90
13332;DHT22;6735;51.456;12.626;2024-01-30T10:10:22;8.40;59.40
13332;DHT22;6735;51.456;12.626;2024-01-30T10:12:49;8.40;59.90
13332;DHT22;6735;51.456;12.626;2024-01-30T10:15:14;8.40;59.30
13332;DHT22;6735;51.456;12.626;2024-01-30T10:17:40;8.50;59.70
13332;DHT22;6735;51.456;12.626;2024-01-30T10:20:06;8.50;59.70
13332;DHT22;6735;51.456;12.626;2024-01-30T10:22:33;8.50;59.40
13332;DHT22;6735;51.456;12.626;2024-01-30T10:25:00;8.60;60.00
13332;DHT22;6735;51.456;12.626;2024-01-30T10:27:26;8.70;59.90
13332;DHT22;6735;51.456;12.626;2024-01-30T10:29:52;8.70;59.40
13332;DHT22;6735;51.456;12.626;2024-01-30T10:32:19;8.70;59.70
13332;DHT22;6735;51.456;12.626;2024-01-30T10:34:45;8.70;59.20
13332;DHT22;6735;51.456;12.626;2024-01-30T10:37:11;8.70;59.00
13332;DHT22;6735;51.456;12.626;2024-01-30T10:39:44;8.70;59.40
13332;DHT22;6735;51.456;12.626;2024-01-30T10:42:15;8.80;59.80
13332;DHT22;6735;51.456;12.626;2024-01-30T10:44:49;8.80;59.30
13332;DHT22;6735;51.456;12.626;2024-01-30T10:47:28;8.90;59.90
13332;DHT22;6735;51.456;12.626;2024-01-30T10:49:55;8.90;59.50
13332;DHT22;6735;51.456;12.626;2024-01-30T10:52:23;9.00;59.70
13332;DHT22;6735;51.456;12.626;2024-01-30T10:54:50;9.00;59.60
13332;DHT22;6735;51.456;12.626;2024-01-30T10:57:17;9.10;59.40
13332;DHT22;6735;51.456;12.626;2024-01-30T10:59:43;9.10;59.40
13332;DHT22;6735;51.456;12.626;2024-01-30T11:02:10;9.10;59.10
13332;DHT22;6735;51.456;12.626;2024-01-30T11:04:41;9.10;59.10
13332;DHT22;6735;51.456;12.626;2024-01-30T11:07:16;9.10;59.10
13332;DHT22;6735;51.456;12.626;2024-01-30T11:09:49;9.20;59.60
13332;DHT22;6735;51.456;12.626;2024-01-30T11:12:16;9.20;59.80
13332;DHT22;6735;51.456;12.626;2024-01-30T11:14:42;9.30;59.60
13332;DHT22;6735;51.456;12.626;2024-01-30T11:17:09;9.30;59.30
13332;DHT22;6735;51.456;12.626;2024-01-30T11:19:37;9.40;59.60
13332;DHT22;6735;51.456;12.626;2024-01-30T11:22:03;9.50;59.90
13332;DHT22;6735;51.456;12.626;2024-01-30T11:24:30;9.40;59.20
13332;DHT22;6735;51.456;12.626;2024-01-30T11:26:56;9.40;59.50
13332;DHT22;6735;51.456;12.626;2024-01-30T11:29:29;9.50;59.80
13332;DHT22;6735;51.456;12.626;2024-01-30T11:31:58;9.50;59.60
13332;DHT22;6735;51.456;12.626;2024-01-30T11:34:24;9.40;59.70
13332;DHT22;6735;51.456;12.626;2024-01-30T11:36:56;9.50;60.00
13332;DHT22;6735;51.456;12.626;2024-01-30T11:39:31;9.60;60.10
13332;DHT22;6735;51.456;12.626;2024-01-30T11:41:57;9.60;60.00
13332;DHT22;6735;51.456;12.626;2024-01-30T11:44:23;9.60;59.80
13332;DHT22;6735;51.456;12.626;2024-01-30T11:46:50;9.60;60.20
13332;DHT22;6735;51.456;12.626;2024-01-30T11:49:16;9.60;60.40
13332;DHT22;6735;51.456;12.626;2024-01-30T11:51:42;9.70;60.30
13332;DHT22;6735;51.456;12.626;2024-01-30T11:54:08;9.70;60.30
13332;DHT22;6735;51.456;12.626;2024-01-30T11:56:34;9.70;60.40
13332;DHT22;6735;51.456;12.626;2024-01-30T11:58:59;9.70;60.60
13332;DHT22;6735;51.456;12.626;2024-01-30T12:01:26;9.70;60.90
13332;DHT22;6735;51.456;12.626;2024-01-30T12:03:52;9.70;61.10
13332;DHT22;6735;51.456;12.626;2024-01-30T12:06:18;9.70;61.20
13332;DHT22;6735;51.456;12.626;2024-01-30T12:09:00;9.80;61.30
13332;DHT22;6735;51.456;12.626;2024-01-30T12:11:29;9.80;61.30
13332;DHT22;6735;51.456;12.626;2024-01-30T12:13:55;9.90;61.50
13332;DHT22;6735;51.456;12.626;2024-01-30T12:16:21;9.90;61.60
13332;DHT22;6735;51.456;12.626;2024-01-30T12:18:48;9.90;61.70
13332;DHT22;6735;51.456;12.626;2024-01-30T12:21:16;10.00;61.90
13332;DHT22;6735;51.456;12.626;2024-01-30T12:23:42;10.10;61.70
13332;DHT22;6735;51.456;12.626;2024-01-30T12:26:08;10.20;62.00
13332;DHT22;6735;51.456;12.626;2024-01-30T12:28:34;10.30;61.50
13332;DHT22;6735;51.456;12.626;2024-01-30T12:31:03;10.40;61.20
13332;DHT22;6735;51.456;12.626;2024-01-30T12:33:29;10.50;61.40
13332;DHT22;6735;51.456;12.626;2024-01-30T12:35:56;10.60;61.00
13332;DHT22;6735;51.456;12.626;2024-01-30T12:38:22;10.70;60.90
13332;DHT22;6735;51.456;12.626;2024-01-30T12:40:49;10.70;60.80
13332;DHT22;6735;51.456;12.626;2024-01-30T12:43:14;10.80;60.60
13332;DHT22;6735;51.456;12.626;2024-01-30T12:45:41;10.90;60.70
13332;DHT22;6735;51.456;12.626;2024-01-30T12:48:07;10.90;60.60
13332;DHT22;6735;51.456;12.626;2024-01-30T12:50:32;11.00;60.90
13332;DHT22;6735;51.456;12.626;2024-01-30T12:52:58;11.10;61.10
13332;DHT22;6735;51.456;12.626;2024-01-30T12:55:24;11.10;61.00
13332;DHT22;6735;51.456;12.626;2024-01-30T12:57:50;11.10;60.70
13332;DHT22;6735;51.456;12.626;2024-01-30T13:00:16;11.20;61.00
13332;DHT22;6735;51.456;12.626;2024-01-30T13:02:42;11.30;61.00
13332;DHT22;6735;51.456;12.626;2024-01-30T13:05:10;11.30;60.70
13332;DHT22;6735;51.456;12.626;2024-01-30T13:07:35;11.40;60.90
13332;DHT22;6735;51.456;12.626;2024-01-30T13:10:01;11.40;61.20
13332;DHT22;6735;51.456;12.626;2024-01-30T13:12:28;11.40;61.60
13332;DHT22;6735;51.456;12.626;2024-01-30T13:14:54;11.50;61.50
13332;DHT22;6735;51.456;12.626;2024-01-30T13:17:20;11.50;61.10
13332;DHT22;6735;51.456;12.626;2024-01-30T13:19:45;11.60;61.20
13332;DHT22;6735;51.456;12.626;2024-01-30T13:22:11;11.60;61.20
13332;DHT22;6735;51.456;12.626;2024-01-30T13:24:36;11.60;61.40
13332;DHT22;6735;51.456;12.626;2024-01-30T13:27:02;11.60;61.40
13332;DHT22;6735;51.456;12.626;2024-01-30T13:29:30;11.70;61.60
13332;DHT22;6735;51.456;12.626;2024-01-30T13:31:56;11.60;61.60
13332;DHT22;6735;51.456;12.626;2024-01-30T13:34:21;11.70;61.50
13332;DHT22;6735;51.456;12.626;2024-01-30T13:36:47;11.70;61.50
13332;DHT22;6735;51.456;12.626;2024-01-30T13:39:14;11.70;61.60
13332;DHT22;6735;51.456;12.626;2024-01-30T13:41:41;11.70;61.40
13332;DHT22;6735;51.456;12.626;2024-01-30T13:44:06;11.70;61.60
13332;DHT22;6735;51.456;12.626;2024-01-30T13:46:32;11.70;61.60
13332;DHT22;6735;51.456;12.626;2024-01-30T13:48:58;11.70;61.50
13332;DHT22;6735;51.456;12.626;2024-01-30T13:51:23;11.60;60.90
13332;DHT22;6735;51.456;12.626;2024-01-30T13:53:48;11.60;61.40
13332;DHT22;6735;51.456;12.626;2024-01-30T13:56:15;11.70;61.30
13332;DHT22;6735;51.456;12.626;2024-01-30T13:58:41;11.60;61.30
13332;DHT22;6735;51.456;12.626;2024-01-30T14:01:06;11.50;61.40
13332;DHT22;6735;51.456;12.626;2024-01-30T14:03:32;11.60;61.40
13332;DHT22;6735;51.456;12.626;2024-01-30T14:05:57;11.40;61.10
13332;DHT22;6735;51.456;12.626;2024-01-30T14:08:23;11.40;61.40
13332;DHT22;6735;51.456;12.626;2024-01-30T14:10:52;11.40;61.50
13332;DHT22;6735;51.456;12.626;2024-01-30T14:13:17;11.30;61.80
13332;DHT22;6735;51.456;12.626;2024-01-30T14:15:43;11.20;61.90
13332;DHT22;6735;51.456;12.626;2024-01-30T14:18:08;11.20;61.90
13332;DHT22;6735;51.456;12.626;2024-01-30T14:20:34;11.10;61.80
13332;DHT22;6735;51.456;12.626;2024-01-30T14:23:00;11.10;62.30
13332;DHT22;6735;51.456;12.626;2024-01-30T14:25:25;11.00;62.40
13332;DHT22;6735;51.456;12.626;2024-01-30T14:27:51;11.10;62.60
13332;DHT22;6735;51.456;12.626;2024-01-30T14:30:17;11.00;62.70
13332;DHT22;6735;51.456;12.626;2024-01-30T14:32:42;11.00;63.00
13332;DHT22;6735;51.456;12.626;2024-01-30T14:35:10;10.90;63.20
13332;DHT22;6735;51.456;12.626;2024-01-30T14:37:35;10.90;63.40
13332;DHT22;6735;51.456;12.626;2024-01-30T14:40:01;10.90;63.40
13332;DHT22;6735;51.456;12.626;2024-01-30T14:42:27;10.80;63.60
13332;DHT22;6735;51.456;12.626;2024-01-30T14:44:56;10.80;63.80
13332;DHT22;6735;51.456;12.626;2024-01-30T14:47:22;10.70;64.00
13332;DHT22;6735;51.456;12.626;2024-01-30T14:49:47;10.70;64.40
13332;DHT22;6735;51.456;12.626;2024-01-30T14:52:14;10.70;64.80
13332;DHT22;6735;51.456;12.626;2024-01-30T14:54:40;10.70;64.50
13332;DHT22;6735;51.456;12.626;2024-01-30T14:57:05;10.70;64.60
13332;DHT22;6735;51.456;12.626;2024-01-30T14:59:31;10.70;64.90
13332;DHT22;6735;51.456;12.626;2024-01-30T15:01:56;10.70;64.90
13332;DHT22;6735;51.456;12.626;2024-01-30T15:04:22;10.70;65.00
13332;DHT22;6735;51.456;12.626;2024-01-30T15:06:48;10.70;65.10
13332;DHT22;6735;51.456;12.626;2024-01-30T15:09:14;10.70;65.30
13332;DHT22;6735;51.456;12.626;2024-01-30T15:11:41;10.60;65.10
13332;DHT22;6735;51.456;12.626;2024-01-30T15:14:07;10.60;65.10
13332;DHT22;6735;51.456;12.626;2024-01-30T15:16:32;10.60;65.40
13332;DHT22;6735;51.456;12.626;2024-01-30T15:18:59;10.60;65.60
13332;DHT22;6735;51.456;12.626;2024-01-30T15:21:24;10.50;65.50
13332;DHT22;6735;51.456;12.626;2024-01-30T15:23:50;10.50;65.70
13332;DHT22;6735;51.456;12.626;2024-01-30T15:26:15;10.50;66.00
13332;DHT22;6735;51.456;12.626;2024-01-30T15:28:41;10.40;66.10
13332;DHT22;6735;51.456;12.626;2024-01-30T15:31:07;10.40;66.10
13332;DHT22;6735;51.456;12.626;2024-01-30T15:33:33;10.30;66.20
13332;DHT22;6735;51.456;12.626;2024-01-30T15:36:00;10.20;66.50